Time;durP1;ratioP1;P1;durP2;ratioP2;P2;SDS_P1;SDS_P2;PMS_P1;PMS_P2;Temp;Humidity;BMP_temperature;BMP_pressure;BME280_temperature;BME280_humidity;BME280_pressure;Samples;Min_cycle;Max_cycle;Signal;HPM_P1;HPM_P2
2023/12/12 00:39:20;;;;;;;12.25;6.40;;;;;;;5.48;100.00;100523.88;6056903;23;20089;-85
2023/12/12 00:41:53;;;;;;;11.82;6.80;;;;;;;5.66;100.00;100552.63;6258012;22;20080;-83
2023/12/12 00:44:18;;;;;;;23.08;6.25;;;;;;;5.46;100.00;100520.59;6306103;22;20003;-82
2023/12/12 00:50:54;;;;;;;;;;;;;;;;;;;;;
2023/12/12 00:53:56;;;;;;;;;;;;;;;;;;;;;
2023/12/12 00:56:53;;;;;;;14.63;6.65;;;;;;;5.54;100.00;100530.28;6306393;22;20365;-85
2023/12/12 01:06:54;;;;;;;20.40;6.57;;;;;;;5.15;100.00;100496.19;6270836;22;20056;-84
2023/12/12 01:09:29;;;;;;;;;;;;;;;;;;;;;
2023/12/12 01:12:13;;;;;;;;;;;;;;;;;;;;;
2023/12/12 01:14:58;;;;;;;;;;;;;;;;;;;;;
2023/12/12 01:17:29;;;;;;;17.52;7.55;;;;;;;5.36;100.00;100536.00;6305852;22;20094;-83
2023/12/12 01:20:10;;;;;;;;;;;;;;;;;;;;;
2023/12/12 01:23:18;;;;;;;20.65;6.78;;;;;;;5.42;100.00;100545.03;6306352;22;20490;-83
2023/12/12 01:26:05;;;;;;;20.08;7.22;;;;;;;5.32;100.00;100525.97;6278902;22;20039;-83
2023/12/12 01:28:35;;;;;;;26.75;8.50;;;;;;;5.19;100.00;100503.56;6305438;22;20031;-82
2023/12/12 01:31:03;;;;;;;25.52;7.22;;;;;;;5.22;100.00;100497.13;6305790;22;20329;-83
2023/12/12 01:33:35;;;;;;;19.92;7.25;;;;;;;5.36;100.00;100509.47;6305741;22;20003;-83
2023/12/12 01:36:11;;;;;;;21.55;7.80;;;;;;;5.28;100.00;100485.75;6277895;22;20385;-83
2023/12/12 01:38:40;;;;;;;20.85;7.68;;;;;;;5.36;100.00;100482.16;6278135;22;20003;-83
2023/12/12 01:41:12;;;;;;;25.35;7.47;;;;;;;5.25;100.00;100468.41;6278192;22;20004;-83
2023/12/12 01:43:58;;;;;;;20.95;6.90;;;;;;;5.53;100.00;100518.03;6279579;22;20098;-83
2023/12/12 02:00:16;;;;;;;;;;;;;;;;;;;;;
2023/12/12 02:02:42;;;;;;;24.42;7.82;;;;;;;5.16;100.00;100485.41;6307029;22;20078;-82
2023/12/12 02:05:10;;;;;;;22.73;6.90;;;;;;;5.10;100.00;100470.25;6279155;22;20480;-81
2023/12/12 02:07:40;;;;;;;22.20;8.30;;;;;;;5.24;100.00;100492.44;6279048;22;20003;-82
2023/12/12 02:10:11;;;;;;;26.85;7.05;;;;;;;5.06;100.00;100479.59;6306863;22;20003;-81
2023/12/12 02:12:45;;;;;;;25.23;8.02;;;;;;;5.04;100.00;100484.25;6279855;22;20006;-81
2023/12/12 02:15:11;;;;;;;26.05;6.90;;;;;;;5.04;100.00;100483.44;6306926;22;20440;-82
2023/12/12 02:20:42;;;;;;;23.00;7.68;;;;;;;5.05;100.00;100498.34;6242156;23;20467;-87
2023/12/12 02:23:08;;;;;;;28.80;7.97;;;;;;;5.16;100.00;100501.31;6276998;22;20004;-84
2023/12/12 02:25:34;;;;;;;24.45;7.25;;;;;;;5.13;100.00;100485.78;6306316;22;20011;-85
2023/12/12 02:28:01;;;;;;;24.23;7.53;;;;;;;5.21;100.00;100498.13;6306431;22;20007;-84
2023/12/12 02:30:26;;;;;;;23.85;7.57;;;;;;;5.26;100.00;100501.03;6279168;22;20038;-83
2023/12/12 02:32:51;;;;;;;26.38;6.70;;;;;;;5.17;100.00;100497.66;6306335;22;20416;-85
2023/12/12 02:35:16;;;;;;;30.30;8.63;;;;;;;5.13;100.00;100483.13;6278906;22;20003;-84
2023/12/12 02:37:42;;;;;;;28.95;8.40;;;;;;;5.14;100.00;100489.25;6306211;22;20057;-85
2023/12/12 02:40:08;;;;;;;33.67;8.00;;;;;;;5.19;100.00;100489.50;6279222;22;20498;-84
2023/12/12 02:42:34;;;;;;;29.55;8.38;;;;;;;5.11;100.00;100481.69;6278758;22;19999;-84
2023/12/12 02:44:59;;;;;;;25.23;7.20;;;;;;;5.05;100.00;100485.09;6279727;22;20003;-83
2023/12/12 02:47:25;;;;;;;24.35;8.30;;;;;;;5.00;100.00;100485.66;6306088;22;20003;-81
2023/12/12 02:49:50;;;;;;;30.20;7.88;;;;;;;4.91;100.00;100486.75;6306207;22;20057;-83
2023/12/12 02:52:15;;;;;;;30.98;8.00;;;;;;;4.87;100.00;100488.94;6306221;22;20066;-83
2023/12/12 02:54:41;;;;;;;31.55;7.82;;;;;;;4.81;100.00;100484.41;6278746;22;20011;-83
2023/12/12 02:57:07;;;;;;;24.13;8.38;;;;;;;4.72;100.00;100482.88;6306169;22;20421;-82
2023/12/12 02:59:32;;;;;;;20.63;7.65;;;;;;;4.72;100.00;100488.16;6278925;22;20011;-82
2023/12/12 03:01:57;;;;;;;40.28;8.70;;;;;;;4.78;100.00;100499.84;6306470;22;20079;-84
2023/12/12 03:04:23;;;;;;;27.27;7.88;;;;;;;4.62;100.00;100485.78;6306174;22;20030;-84
2023/12/12 03:06:48;;;;;;;33.38;9.50;;;;;;;4.57;100.00;100480.22;6306004;22;20508;-83
2023/12/12 03:09:13;;;;;;;35.35;7.50;;;;;;;4.61;100.00;100481.50;6306373;22;20390;-84
2023/12/12 03:11:39;;;;;;;37.97;9.35;;;;;;;4.68;100.00;100486.91;6278881;22;20003;-85
2023/12/12 03:14:04;;;;;;;22.60;8.50;;;;;;;4.62;100.00;100477.00;6279034;22;20007;-83
2023/12/12 03:16:29;;;;;;;33.42;8.85;;;;;;;4.67;100.00;100477.31;6306052;22;20000;-82
2023/12/12 03:18:55;;;;;;;30.20;7.55;;;;;;;4.66;100.00;100479.13;6278605;22;20011;-82
2023/12/12 03:21:20;;;;;;;27.85;8.05;;;;;;;4.61;100.00;100468.25;6306151;22;20029;-82
2023/12/12 03:23:48;;;;;;;29.10;6.95;;;;;;;4.57;100.00;100464.34;6306030;22;20027;-82
2023/12/12 03:26:13;;;;;;;25.33;7.53;;;;;;;4.58;100.00;100465.97;6278475;22;20010;-82
2023/12/12 03:28:39;;;;;;;32.88;8.23;;;;;;;4.60;100.00;100471.09;6278636;22;20007;-83
2023/12/12 03:31:05;;;;;;;26.63;8.10;;;;;;;4.64;100.00;100465.25;6278770;22;20014;-81
2023/12/12 03:33:30;;;;;;;31.90;9.02;;;;;;;4.60;100.00;100460.50;6278666;22;19999;-83
2023/12/12 03:35:56;;;;;;;31.90;8.00;;;;;;;4.68;100.00;100475.47;6306061;22;20049;-81
2023/12/12 03:38:21;;;;;;;35.78;9.18;;;;;;;4.58;100.00;100462.50;6278820;22;20042;-83
2023/12/12 03:40:46;;;;;;;38.35;8.45;;;;;;;4.55;100.00;100465.53;6305971;22;20082;-82
2023/12/12 03:43:12;;;;;;;26.77;7.10;;;;;;;4.52;100.00;100461.41;6278651;22;20444;-82
2023/12/12 03:45:38;;;;;;;29.83;7.50;;;;;;;4.40;100.00;100462.91;6306045;22;20013;-81
2023/12/12 03:48:03;;;;;;;32.50;7.93;;;;;;;4.44;100.00;100455.41;6305784;22;20504;-81
2023/12/12 03:50:28;;;;;;;33.58;8.35;;;;;;;4.43;100.00;100454.59;6278546;22;20011;-83
2023/12/12 03:52:54;;;;;;;31.10;7.75;;;;;;;4.46;100.00;100448.09;6305811;22;19999;-83
2023/12/12 03:55:19;;;;;;;35.60;9.25;;;;;;;4.47;100.00;100434.69;6305988;22;20007;-83
2023/12/12 03:57:44;;;;;;;27.80;6.97;;;;;;;4.50;100.00;100421.06;6305827;22;20007;-84
2023/12/12 04:00:10;;;;;;;25.75;7.32;;;;;;;4.57;100.00;100416.69;6278416;22;20340;-83
2023/12/12 04:02:36;;;;;;;39.97;7.65;;;;;;;4.66;100.00;100425.34;6305955;22;20007;-83
2023/12/12 04:05:03;;;;;;;25.73;8.25;;;;;;;4.68;100.00;100417.22;6305221;22;20378;-84
2023/12/12 04:07:28;;;;;;;33.75;7.07;;;;;;;4.66;100.00;100430.66;6278469;22;20011;-83
2023/12/12 04:09:54;;;;;;;21.85;6.82;;;;;;;4.62;100.00;100418.75;6278561;22;20003;-83
2023/12/12 04:12:19;;;;;;;27.05;6.97;;;;;;;4.69;100.00;100429.47;6278507;22;20011;-82
2023/12/12 04:14:45;;;;;;;38.78;10.15;;;;;;;4.71;100.00;100424.78;6278514;22;20086;-81
2023/12/12 04:17:11;;;;;;;30.00;7.45;;;;;;;4.67;100.00;100413.75;6306084;22;20017;-84
2023/12/12 04:19:37;;;;;;;29.23;7.10;;;;;;;4.74;100.00;100421.78;6278362;22;20454;-84
2023/12/12 04:22:02;;;;;;;24.30;8.57;;;;;;;4.76;100.00;100423.22;6305988;22;20034;-83
2023/12/12 04:24:28;;;;;;;28.27;8.15;;;;;;;4.77;100.00;100416.91;6278560;22;20037;-84
2023/12/12 04:26:53;;;;;;;29.13;7.72;;;;;;;4.73;100.00;100406.88;6278344;22;20014;-85
2023/12/12 04:29:18;;;;;;;37.15;11.02;;;;;;;4.77;100.00;100410.81;6278375;22;20007;-87
2023/12/12 04:31:44;;;;;;;37.72;10.35;;;;;;;4.84;100.00;100417.00;6306284;22;20082;-84
2023/12/12 04:34:09;;;;;;;44.42;8.52;;;;;;;4.82;100.00;100409.22;6278471;22;20005;-87
2023/12/12 04:36:35;;;;;;;28.58;8.73;;;;;;;4.85;100.00;100408.84;6305786;22;19999;-83
2023/12/12 04:39:00;;;;;;;28.08;8.00;;;;;;;4.93;100.00;100411.41;6305688;22;20011;-83
2023/12/12 04:41:25;;;;;;;30.55;7.85;;;;;;;4.92;100.00;100399.16;6278440;22;20007;-84
2023/12/12 04:43:51;;;;;;;36.75;9.80;;;;;;;4.93;100.00;100397.34;6305758;22;20429;-84
2023/12/12 04:46:20;;;;;;;33.20;8.98;;;;;;;4.97;100.00;100402.06;6278514;22;20054;-84
2023/12/12 04:48:46;;;;;;;28.23;8.13;;;;;;;4.95;100.00;100401.44;6278395;22;20018;-84
2023/12/12 04:51:12;;;;;;;34.80;7.78;;;;;;;4.96;100.00;100404.91;6278423;22;20003;-84
2023/12/12 04:53:37;;;;;;;34.03;8.55;;;;;;;4.90;100.00;100395.03;6278267;22;20048;-84
2023/12/12 04:56:02;;;;;;;33.55;8.98;;;;;;;4.97;100.00;100402.06;6305501;22;20003;-84
2023/12/12 04:58:28;;;;;;;29.90;8.50;;;;;;;4.97;100.00;100390.66;6305553;22;20132;-83
2023/12/12 05:00:53;;;;;;;29.90;10.40;;;;;;;4.93;100.00;100376.16;6278190;22;20014;-84
2023/12/12 05:03:18;;;;;;;36.63;9.82;;;;;;;4.95;100.00;100376.78;6305580;22;20045;-84
2023/12/12 05:05:45;;;;;;;37.53;9.68;;;;;;;5.01;100.00;100383.13;6278121;22;20000;-84
2023/12/12 05:08:10;;;;;;;37.22;8.82;;;;;;;5.02;100.00;100385.59;6305334;22;20003;-84
2023/12/12 05:10:35;;;;;;;39.75;9.68;;;;;;;5.02;100.00;100382.13;6278243;22;20007;-84
2023/12/12 05:13:01;;;;;;;36.85;9.38;;;;;;;5.03;100.00;100374.00;6278137;22;20439;-84
2023/12/12 05:15:28;;;;;;;26.55;9.95;;;;;;;5.10;100.00;100377.53;6305559;22;20014;-84
2023/12/12 05:17:53;;;;;;;36.70;9.88;;;;;;;5.06;100.00;100360.38;6305345;22;20003;-85
2023/12/12 05:20:19;;;;;;;35.55;9.73;;;;;;;5.11;100.00;100373.03;6278034;22;20336;-84
2023/12/12 05:22:44;;;;;;;28.60;9.65;;;;;;;5.09;100.00;100364.47;6305908;22;20428;-85
2023/12/12 05:25:09;;;;;;;30.48;8.35;;;;;;;5.12;100.00;100359.59;6278091;22;20094;-84
2023/12/12 05:27:35;;;;;;;38.08;8.98;;;;;;;5.15;100.00;100361.88;6277845;22;20010;-85
2023/12/12 05:30:00;;;;;;;31.92;9.38;;;;;;;5.16;100.00;100360.84;6305086;22;20010;-84
2023/12/12 05:32:25;;;;;;;31.15;9.32;;;;;;;5.19;100.00;100362.28;6277961;22;20033;-84
2023/12/12 05:34:51;;;;;;;32.33;9.38;;;;;;;5.15;100.00;100351.25;6277923;22;20022;-84
2023/12/12 05:37:16;;;;;;;35.65;8.68;;;;;;;5.19;100.00;100360.47;6277832;22;20428;-83
2023/12/12 05:39:42;;;;;;;36.60;8.50;;;;;;;5.13;100.00;100348.00;6305282;22;20007;-81
2023/12/12 05:42:07;;;;;;;25.17;8.70;;;;;;;5.18;100.00;100358.81;6305216;22;20006;-83
2023/12/12 05:44:32;;;;;;;23.13;7.85;;;;;;;5.22;100.00;100356.66;6277758;22;20012;-82
2023/12/12 05:46:58;;;;;;;34.20;9.25;;;;;;;5.19;100.00;100349.03;6305383;22;20038;-83
2023/12/12 05:49:23;;;;;;;28.25;8.65;;;;;;;5.17;100.00;100343.13;6305098;22;20008;-82
2023/12/12 05:51:49;;;;;;;40.30;8.88;;;;;;;5.28;100.00;100358.53;6305059;22;20071;-83
2023/12/12 05:54:14;;;;;;;32.75;9.27;;;;;;;5.28;100.00;100359.34;6305216;22;20010;-80
2023/12/12 05:56:43;;;;;;;40.30;8.55;;;;;;;5.24;100.00;100344.03;6277511;22;20010;-82
2023/12/12 05:59:08;;;;;;;39.05;9.77;;;;;;;5.29;100.00;100358.34;6278146;22;20019;-81
2023/12/12 06:01:33;;;;;;;44.25;9.45;;;;;;;5.23;100.00;100340.53;6305208;22;20302;-80
2023/12/12 06:03:59;;;;;;;33.60;9.55;;;;;;;5.32;100.00;100359.78;6305200;22;20045;-80
2023/12/12 06:06:28;;;;;;;35.47;9.32;;;;;;;5.33;100.00;100360.59;6305331;22;19995;-81
2023/12/12 06:08:53;;;;;;;33.10;9.82;;;;;;;5.31;100.00;100349.38;6304985;22;20166;-83
2023/12/12 06:11:21;;;;;;;48.20;9.98;;;;;;;5.34;100.00;100351.63;6277675;22;20133;-82
2023/12/12 06:13:46;;;;;;;30.48;9.80;;;;;;;5.39;100.00;100351.88;6277697;22;20034;-83
2023/12/12 06:16:11;;;;;;;37.50;10.75;;;;;;;5.38;100.00;100352.88;6277744;22;20003;-81
2023/12/12 06:18:38;;;;;;;33.05;8.38;;;;;;;5.41;100.00;100340.06;6304878;22;20027;-85
2023/12/12 06:21:04;;;;;;;38.75;11.77;;;;;;;5.50;100.00;100343.41;6305043;22;20034;-86
2023/12/12 06:23:30;;;;;;;29.85;8.82;;;;;;;5.51;100.00;100334.44;6305014;22;20073;-84
2023/12/12 06:25:56;;;;;;;33.92;9.10;;;;;;;5.54;100.00;100334.88;6305461;22;20015;-84
2023/12/12 06:28:22;;;;;;;31.45;8.65;;;;;;;5.50;100.00;100316.88;6280008;22;20331;-86
2023/12/12 06:30:47;;;;;;;46.97;10.30;;;;;;;5.58;100.00;100330.00;6281129;22;20117;-84
2023/12/12 06:33:12;;;;;;;32.40;8.75;;;;;;;5.64;100.00;100323.09;6281703;22;20007;-83
2023/12/12 06:35:38;;;;;;;33.40;8.70;;;;;;;5.64;100.00;100318.59;6307800;22;20074;-84
2023/12/12 06:38:04;;;;;;;38.05;7.88;;;;;;;5.62;100.00;100310.03;6280698;22;20052;-85
2023/12/12 06:40:30;;;;;;;37.22;8.20;;;;;;;5.61;100.00;100297.78;6308965;22;20034;-84
2023/12/12 06:42:55;;;;;;;37.72;9.43;;;;;;;5.71;100.00;100313.31;6282834;22;20006;-82
2023/12/12 06:45:20;;;;;;;37.92;8.95;;;;;;;5.78;100.00;100312.38;6280770;22;20007;-82
2023/12/12 06:47:46;;;;;;;38.15;7.90;;;;;;;5.78;100.00;100298.25;6280539;22;20003;-83
2023/12/12 06:50:11;;;;;;;32.72;7.90;;;;;;;5.84;100.00;100292.19;6280585;22;20082;-82
2023/12/12 06:52:37;;;;;;;30.58;7.60;;;;;;;5.94;100.00;100295.31;6308135;22;19999;-82
2023/12/12 06:55:08;;;;;;;30.65;7.50;;;;;;;5.88;100.00;100275.69;6307431;22;20010;-84
2023/12/12 06:57:34;;;;;;;36.35;9.00;;;;;;;5.94;100.00;100265.31;6307274;22;20332;-82
2023/12/12 06:59:59;;;;;;;38.03;7.20;;;;;;;6.11;100.00;100279.91;6279635;22;20431;-82
2023/12/12 07:02:26;;;;;;;29.55;8.30;;;;;;;6.07;100.00;100270.66;6278823;22;20003;-83
2023/12/12 07:04:51;;;;;;;26.88;7.45;;;;;;;6.06;100.00;100277.81;6278887;22;20014;-83
2023/12/12 07:07:16;;;;;;;41.13;7.18;;;;;;;6.05;100.00;100280.66;6278785;22;20003;-83
2023/12/12 07:09:42;;;;;;;31.63;7.50;;;;;;;6.05;100.00;100280.66;6278837;22;20010;-83
2023/12/12 07:12:07;;;;;;;35.92;9.30;;;;;;;5.97;100.00;100284.31;6306078;22;20004;-82
2023/12/12 07:14:33;;;;;;;33.13;8.07;;;;;;;5.90;100.00;100275.50;6278612;22;20317;-82
2023/12/12 07:16:58;;;;;;;36.15;7.88;;;;;;;5.89;100.00;100282.66;6306460;22;20061;-83
2023/12/12 07:19:23;;;;;;;33.92;10.02;;;;;;;5.90;100.00;100276.34;6306198;22;20003;-85
2023/12/12 07:21:49;;;;;;;30.20;7.97;;;;;;;5.94;100.00;100283.91;6278793;22;20015;-84
2023/12/12 07:24:15;;;;;;;44.53;10.65;;;;;;;5.90;100.00;100281.63;6278741;22;20074;-84
2023/12/12 07:26:46;;;;;;;31.42;8.05;;;;;;;5.93;100.00;100277.78;6306172;22;20023;-85
2023/12/12 07:29:12;;;;;;;42.92;7.43;;;;;;;5.94;100.00;100265.31;6305975;22;19999;-84
2023/12/12 07:31:37;;;;;;;35.17;6.93;;;;;;;5.99;100.00;100265.53;6306087;22;20007;-85
2023/12/12 07:34:05;;;;;;;37.35;8.90;;;;;;;5.97;100.00;100265.75;6305824;22;20404;-82
2023/12/12 07:36:31;;;;;;;30.13;7.18;;;;;;;5.97;100.00;100260.44;6305950;22;20072;-86
2023/12/12 07:39:00;;;;;;;26.20;8.18;;;;;;;6.05;100.00;100264.75;6278767;22;20014;-86
2023/12/12 07:41:25;;;;;;;32.80;7.97;;;;;;;6.04;100.00;100263.09;6306253;22;20026;-87
2023/12/12 07:43:51;;;;;;;37.83;8.68;;;;;;;6.08;100.00;100259.06;6278894;22;20463;-87
2023/12/12 07:46:16;;;;;;;33.30;8.60;;;;;;;6.15;100.00;100263.38;6306131;22;20061;-87
2023/12/12 07:48:41;;;;;;;37.88;7.32;;;;;;;6.15;100.00;100251.94;6305805;22;20056;-84
2023/12/12 07:51:40;;;;;;;;;;;;;;;;;;;;;
2023/12/12 07:54:06;;;;;;;31.67;7.20;;;;;;;6.09;100.00;100226.19;6279938;22;20475;-86
2023/12/12 07:56:53;;;;;;;30.15;6.50;;;;;;;6.03;100.00;100208.41;6278934;22;20038;-86
2023/12/12 07:59:18;;;;;;;23.88;6.35;;;;;;;6.00;100.00;100206.97;6278830;22;20007;-86
2023/12/12 08:01:44;;;;;;;37.35;7.55;;;;;;;6.18;100.00;100231.13;6306014;22;20072;-87
2023/12/12 08:04:09;;;;;;;36.75;7.00;;;;;;;6.19;100.00;100231.94;6278751;22;20007;-85
2023/12/12 08:06:34;;;;;;;21.90;6.90;;;;;;;6.28;100.00;100228.06;6306011;22;20003;-86
2023/12/12 08:09:00;;;;;;;27.48;7.10;;;;;;;6.37;100.00;100228.72;6305871;22;20011;-86
2023/12/12 08:11:27;;;;;;;36.75;8.30;;;;;;;6.50;100.00;100245.47;6305979;22;19999;-85
2023/12/12 08:13:54;;;;;;;31.85;8.95;;;;;;;6.70;100.00;100231.41;6305938;22;20072;-85
2023/12/12 08:16:19;;;;;;;30.30;7.15;;;;;;;7.13;100.00;100227.28;6278426;22;20476;-85
2023/12/12 08:18:44;;;;;;;32.28;7.53;;;;;;;7.57;100.00;100217.78;6306020;22;20011;-85
2023/12/12 08:21:10;;;;;;;29.95;8.13;;;;;;;7.83;100.00;100213.41;6305755;22;20048;-84
2023/12/12 08:23:37;;;;;;;32.30;7.45;;;;;;;7.83;100.00;100221.38;6305628;22;20003;-85
2023/12/12 08:26:03;;;;;;;22.95;6.55;;;;;;;8.28;100.00;100216.84;6278439;22;20359;-85
2023/12/12 08:28:29;;;;;;;29.67;6.93;;;;;;;8.42;100.00;100221.09;6305728;22;20078;-85
2023/12/12 08:30:54;;;;;;;30.95;6.90;;;;;;;8.14;100.00;100205.47;6305804;22;20030;-86
2023/12/12 08:33:20;;;;;;;18.85;5.82;;;;;;;8.71;100.00;100202.84;6278322;22;20033;-85
2023/12/12 08:35:45;;;;;;;28.75;7.45;;;;;;;9.76;100.00;100214.28;6278462;22;20432;-85
2023/12/12 08:38:12;;;;;;;19.90;5.85;;;;;;;10.40;100.00;100218.19;6305714;22;20003;-84
2023/12/12 08:40:37;;;;;;;21.48;5.90;;;;;;;10.89;100.00;100229.56;6305919;22;20014;-85
2023/12/12 08:43:02;;;;;;;21.50;6.70;;;;;;;11.76;100.00;100235.78;6278406;22;19999;-85
2023/12/12 08:45:29;;;;;;;18.13;6.85;;;;;;;12.32;100.00;100234.25;6305587;22;20003;-85
2023/12/12 08:47:54;;;;;;;19.08;5.03;;;;;;;12.57;100.00;100225.84;6305630;22;20075;-85
2023/12/12 08:50:20;;;;;;;19.80;5.10;;;;;;;12.98;100.00;100219.25;6305504;22;20472;-85
2023/12/12 08:52:45;;;;;;;20.33;6.20;;;;;;;13.16;100.00;100216.31;6278192;22;20018;-85
2023/12/12 08:55:11;;;;;;;17.40;5.47;;;;;;;13.16;100.00;100210.13;6278175;22;20011;-85
2023/12/12 08:57:36;;;;;;;15.82;5.72;;;;;;;12.77;100.00;100211.97;6306105;22;19999;-85
2023/12/12 09:00:03;;;;;;;16.13;6.03;;;;;;;12.03;100.00;100220.84;6305578;22;20003;-85
2023/12/12 09:02:29;;;;;;;16.02;5.15;;;;;;;11.72;100.00;100207.88;6305643;22;20003;-85
2023/12/12 09:04:54;;;;;;;15.43;4.95;;;;;;;11.84;100.00;100208.66;6278283;22;20007;-84
2023/12/12 09:07:20;;;;;;;20.55;6.40;;;;;;;11.92;100.00;100210.19;6278165;22;20004;-85
2023/12/12 09:09:45;;;;;;;16.60;7.50;;;;;;;11.93;100.00;100201.91;6305872;22;20008;-85
2023/12/12 09:12:10;;;;;;;20.88;5.05;;;;;;;11.84;100.00;100205.97;6305668;22;20003;-85
2023/12/12 09:14:36;;;;;;;16.73;4.93;;;;;;;11.87;100.00;100183.28;6278465;22;20013;-86
2023/12/12 09:17:01;;;;;;;20.65;4.70;;;;;;;12.33;100.00;100187.59;6278139;22;20007;-85
2023/12/12 09:19:26;;;;;;;15.82;4.97;;;;;;;12.43;100.00;100171.69;6278040;22;20309;-85
2023/12/12 09:21:54;;;;;;;13.23;4.88;;;;;;;11.75;100.00;100168.03;6305353;22;19999;-84
2023/12/12 09:24:19;;;;;;;15.52;4.22;;;;;;;11.45;100.00;100165.53;6278166;22;20033;-84
2023/12/12 09:26:46;;;;;;;11.70;4.18;;;;;;;11.05;100.00;100173.53;6277857;22;20011;-85
2023/12/12 09:29:12;;;;;;;18.65;4.40;;;;;;;11.07;100.00;100163.41;6305253;22;20432;-85
2023/12/12 09:31:37;;;;;;;16.98;4.85;;;;;;;11.38;100.00;100177.44;6278156;22;20014;-85
2023/12/12 09:34:02;;;;;;;16.90;5.28;;;;;;;11.73;100.00;100175.47;6305303;22;19999;-85
2023/12/12 09:36:28;;;;;;;15.13;5.00;;;;;;;12.21;100.00;100168.09;6305554;22;20053;-85
2023/12/12 09:38:53;;;;;;;14.98;4.63;;;;;;;12.49;100.00;100168.06;6305422;22;20003;-85
2023/12/12 09:41:23;;;;;;;14.45;4.50;;;;;;;12.67;100.00;100167.81;6277914;22;20007;-86
2023/12/12 09:43:50;;;;;;;13.73;4.60;;;;;;;12.59;100.00;100162.03;6277787;22;20018;-86
2023/12/12 09:46:16;;;;;;;16.25;5.57;;;;;;;12.34;100.00;100173.97;6305295;22;20056;-86
2023/12/12 09:48:47;;;;;;;15.60;5.10;;;;;;;11.45;100.00;100162.06;6305133;22;20466;-86
2023/12/12 09:51:14;;;;;;;16.77;5.28;;;;;;;10.99;100.00;100154.94;6305180;22;20033;-84
2023/12/12 09:53:46;;;;;;;12.15;4.00;;;;;;;10.86;100.00;100151.41;6305125;22;20018;-84
2023/12/12 09:56:14;;;;;;;15.57;5.20;;;;;;;10.58;100.00;100137.91;6278367;22;20730;-85
2023/12/12 09:58:40;;;;;;;11.02;3.95;;;;;;;10.26;100.00;100123.25;6305151;22;20641;-85
2023/12/12 10:01:07;;;;;;;17.52;4.88;;;;;;;10.26;100.00;100125.91;6304939;22;20083;-85
2023/12/12 10:03:32;;;;;;;15.75;5.38;;;;;;;10.13;100.00;100114.38;6278244;22;20007;-86
2023/12/12 10:06:05;;;;;;;16.40;4.38;;;;;;;10.39;100.00;100120.34;6306745;22;20003;-86
2023/12/12 10:08:31;;;;;;;;;;;;;;;11.12;100.00;100118.03;6306885;22;20381;-86
2023/12/12 10:10:56;;;;;;;9.25;3.47;;;;;;;11.84;100.00;100101.50;6279251;22;20010;-85
2023/12/12 10:13:22;;;;;;;12.85;3.63;;;;;;;12.30;100.00;100099.63;6279232;22;20340;-86
2023/12/12 10:15:48;;;;;;;13.15;4.30;;;;;;;12.28;100.00;100097.19;6306440;22;20051;-85
2023/12/12 10:18:14;;;;;;;9.35;3.53;;;;;;;12.26;100.00;100090.47;6278998;22;20011;-85
2023/12/12 10:20:39;;;;;;;12.70;4.13;;;;;;;12.14;100.00;100081.66;6279091;22;20014;-85
2023/12/12 10:23:05;;;;;;;14.93;3.75;;;;;;;12.26;100.00;100082.41;6279431;22;20037;-85
2023/12/12 10:25:32;;;;;;;10.80;3.72;;;;;;;12.01;100.00;100074.75;6306324;22;20003;-87
2023/12/12 10:27:58;;;;;;;12.02;3.53;;;;;;;12.12;100.00;100081.09;6279254;22;20015;-85
2023/12/12 10:30:24;;;;;;;11.32;4.13;;;;;;;12.46;100.00;100072.00;6306271;22;20007;-85
2023/12/12 10:32:51;;;;;;;10.48;3.90;;;;;;;12.97;100.00;100078.06;6306374;22;20014;-84
2023/12/12 10:35:20;;;;;;;7.53;3.03;;;;;;;13.20;100.00;100082.44;6306630;22;20066;-85
2023/12/12 10:37:48;;;;;;;13.35;3.85;;;;;;;12.76;100.00;100074.31;6306266;22;20060;-85
2023/12/12 10:40:23;;;;;;;12.57;3.90;;;;;;;12.35;100.00;100067.53;6278933;22;20481;-84
2023/12/12 10:42:49;;;;;;;9.73;3.38;;;;;;;11.92;100.00;100081.56;6306127;22;20007;-84
2023/12/12 10:45:16;;;;;;;11.45;4.72;;;;;;;11.61;100.00;100064.13;6305802;22;20003;-84
2023/12/12 10:47:45;;;;;;;9.48;3.42;;;;;;;11.73;100.00;100054.97;6306407;22;20428;-85
2023/12/12 10:50:15;;;;;;;9.10;3.80;;;;;;;12.03;100.00;100048.53;6278961;22;20011;-84
2023/12/12 10:52:43;;;;;;;8.18;3.00;;;;;;;11.87;100.00;100041.31;6306263;22;20007;-85
2023/12/12 10:55:10;;;;;;;10.18;4.30;;;;;;;11.53;100.00;100045.75;6306102;22;20010;-85
2023/12/12 10:57:38;;;;;;;10.32;3.30;;;;;;;11.58;100.00;100048.53;6279100;22;20037;-86
2023/12/12 11:00:11;;;;;;;11.23;3.70;;;;;;;11.56;100.00;100037.22;6306268;22;20078;-85
2023/12/12 11:02:38;;;;;;;5.15;3.00;;;;;;;11.57;100.00;100033.53;6278760;22;20529;-86
2023/12/12 11:05:05;;;;;;;9.43;3.88;;;;;;;11.13;100.00;100043.91;6306130;22;20061;-84
2023/12/12 11:07:33;;;;;;;10.07;3.65;;;;;;;11.02;100.00;100026.03;6278873;22;20348;-85
2023/12/12 11:09:58;;;;;;;7.63;3.40;;;;;;;10.94;100.00;100019.19;6278732;22;20306;-86
2023/12/12 11:12:25;;;;;;;9.18;2.85;;;;;;;10.83;100.00;100007.47;6278805;22;20003;-84
2023/12/12 11:14:51;;;;;;;7.13;3.42;;;;;;;10.72;100.00;100007.50;6278899;22;20003;-84
2023/12/12 11:17:18;;;;;;;6.88;3.03;;;;;;;10.54;100.00;99995.91;6306110;22;20015;-85
2023/12/12 11:19:43;;;;;;;7.45;2.80;;;;;;;10.50;100.00;99991.25;6278750;22;20010;-85
2023/12/12 11:22:09;;;;;;;9.50;3.90;;;;;;;10.45;100.00;100001.84;6278633;22;20035;-85
2023/12/12 11:25:02;;;;;;;8.48;3.20;;;;;;;10.65;100.00;99988.09;6278880;22;20007;-86
2023/12/12 11:27:28;;;;;;;6.35;3.03;;;;;;;10.72;100.00;99983.44;6278556;22;20336;-86
2023/12/12 11:29:54;;;;;;;7.60;3.05;;;;;;;10.76;100.00;99990.75;6278751;22;20011;-86
2023/12/12 11:32:24;;;;;;;9.93;3.13;;;;;;;10.68;100.00;99979.59;6305978;22;19999;-86
2023/12/12 11:34:50;;;;;;;9.93;3.38;;;;;;;10.64;100.00;99981.13;6278667;22;20004;-85
2023/12/12 11:37:16;;;;;;;6.65;3.13;;;;;;;10.72;100.00;99975.41;6306022;22;20373;-85
2023/12/12 11:39:41;;;;;;;8.10;2.53;;;;;;;10.68;100.00;99977.72;6278549;22;20015;-86
2023/12/12 11:42:16;;;;;;;10.63;2.97;;;;;;;10.62;100.00;99959.97;6278394;22;20019;-86
2023/12/12 11:45:02;;;;;;;8.18;3.33;;;;;;;10.54;100.00;99968.34;6278633;22;20379;-86
2023/12/12 11:47:32;;;;;;;8.63;3.08;;;;;;;10.36;100.00;99957.78;6305627;22;20007;-88
2023/12/12 11:50:13;;;;;;;5.78;2.92;;;;;;;9.90;100.00;99956.75;6306040;22;20007;-86
2023/12/12 11:52:38;;;;;;;15.38;3.60;;;;;;;9.69;100.00;99954.63;6306035;22;20447;-85
2023/12/12 11:55:04;;;;;;;8.68;3.40;;;;;;;9.46;100.00;99937.53;6278867;22;20090;-86
2023/12/12 11:57:30;;;;;;;9.07;4.40;;;;;;;9.35;100.00;99929.50;6305833;22;20501;-86
2023/12/12 11:59:58;;;;;;;7.85;3.50;;;;;;;9.34;100.00;99936.69;6278408;22;19999;-86
2023/12/12 12:02:27;;;;;;;12.65;3.90;;;;;;;9.35;100.00;99934.84;6278570;22;20096;-86
2023/12/12 12:04:52;;;;;;;12.95;3.95;;;;;;;9.22;100.00;99911.81;6306238;22;20003;-86
2023/12/12 12:07:19;;;;;;;10.07;3.83;;;;;;;9.26;100.00;99923.69;6278407;22;20011;-86
2023/12/12 12:09:47;;;;;;;8.65;3.63;;;;;;;9.31;100.00;99924.63;6305804;22;20003;-85
2023/12/12 12:12:13;;;;;;;9.30;3.67;;;;;;;9.31;100.00;99918.47;6278406;22;20099;-86
2023/12/12 12:14:39;;;;;;;7.22;3.80;;;;;;;9.34;100.00;99918.00;6306034;22;20003;-85
2023/12/12 12:17:05;;;;;;;9.93;3.78;;;;;;;9.39;100.00;99914.66;6305920;22;20061;-86
2023/12/12 12:19:34;;;;;;;7.85;4.10;;;;;;;9.48;100.00;99913.28;6305635;22;20007;-86
2023/12/12 12:22:08;;;;;;;7.43;3.60;;;;;;;9.47;100.00;99909.78;6305686;22;20056;-86
2023/12/12 12:24:43;;;;;;;7.22;3.58;;;;;;;9.38;100.00;99889.03;6305769;22;20041;-86
2023/12/12 12:27:09;;;;;;;12.65;4.55;;;;;;;9.43;100.00;99897.16;6305414;22;20366;-85
2023/12/12 12:29:35;;;;;;;6.25;3.60;;;;;;;9.54;100.00;99883.84;6306288;22;20084;-85
2023/12/12 12:32:15;;;;;;;11.25;4.47;;;;;;;9.62;100.00;99882.66;6278404;22;20017;-86
2023/12/12 12:34:41;;;;;;;10.68;3.70;;;;;;;9.66;100.00;99873.16;6278567;22;20011;-85